createdAt,value
2019-03-10T00:00:38.706Z,5.77
2019-03-10T00:03:08.775Z,5.66
2019-03-10T00:05:38.809Z,5.80
2019-03-10T00:10:48.227Z,5.73
2019-03-10T00:13:18.248Z,5.82
2019-03-10T00:15:48.596Z,5.87
2019-03-10T00:18:18.611Z,5.92
2019-03-10T00:20:48.723Z,5.97
2019-03-10T00:23:18.761Z,6.05
2019-03-10T00:25:48.808Z,6.08
2019-03-10T00:28:18.831Z,6.05
2019-03-10T00:30:49.182Z,6.19
2019-03-10T00:33:19.232Z,6.18
2019-03-10T00:35:49.262Z,6.31
2019-03-10T00:38:19.631Z,6.36
2019-03-10T00:47:22.157Z,6.47
2019-03-10T00:50:00.885Z,6.47
2019-03-10T00:55:24.404Z,6.55
2019-03-10T00:57:54.425Z,6.60
2019-03-10T01:00:24.487Z,6.57
2019-03-10T01:02:54.541Z,6.60
2019-03-10T01:05:24.570Z,6.58
2019-03-10T01:07:54.596Z,6.53
2019-03-10T01:10:24.630Z,6.49
2019-03-10T01:12:54.648Z,6.51
2019-03-10T01:15:24.693Z,6.52
2019-03-10T01:17:54.733Z,6.67
2019-03-10T01:20:24.778Z,6.57
2019-03-10T01:22:54.810Z,6.58
2019-03-10T01:25:25.145Z,6.65
2019-03-10T01:27:55.165Z,6.64
2019-03-10T01:30:25.231Z,6.54
2019-03-10T01:33:13.698Z,6.64
2019-03-10T01:35:43.722Z,6.60
2019-03-10T01:38:13.764Z,6.57
2019-03-10T01:40:43.809Z,6.57
2019-03-10T01:43:13.815Z,6.46
2019-03-10T01:45:43.848Z,6.52
2019-03-10T01:48:14.243Z,6.52
2019-03-10T01:50:44.562Z,6.51
2019-03-10T01:53:14.582Z,6.54
2019-03-10T01:55:44.615Z,6.46
2019-03-10T01:58:15.006Z,6.45
2019-03-10T02:00:45.329Z,6.53
2019-03-10T02:03:15.604Z,6.54
2019-03-10T02:05:45.974Z,6.44
2019-03-10T02:08:16.011Z,6.37
2019-03-10T02:10:46.418Z,6.30
2019-03-10T02:13:16.734Z,6.30
2019-03-10T02:15:46.767Z,6.45
2019-03-10T02:18:16.792Z,6.41
2019-03-10T02:20:46.843Z,6.35
2019-03-10T02:23:17.197Z,6.29
2019-03-10T02:25:47.250Z,6.35
2019-03-10T02:28:17.291Z,6.30
2019-03-10T02:30:47.318Z,6.26
2019-03-10T02:33:17.688Z,6.37
2019-03-10T02:35:47.756Z,6.23
2019-03-10T02:38:17.803Z,6.24
2019-03-10T02:40:47.828Z,6.22
2019-03-10T02:43:17.872Z,6.13
2019-03-10T02:45:47.893Z,6.27
2019-03-10T02:48:17.965Z,6.22
2019-03-10T02:50:47.963Z,6.30
2019-03-10T02:53:17.977Z,6.29
2019-03-10T02:55:48.016Z,6.26
2019-03-10T02:58:18.030Z,6.43
2019-03-10T03:00:48.074Z,6.35
2019-03-10T03:03:18.082Z,6.21
2019-03-10T03:05:48.115Z,6.18
2019-03-10T03:08:18.134Z,6.44
2019-03-10T03:10:48.545Z,6.41
2019-03-10T03:13:18.636Z,6.40
2019-03-10T03:15:48.676Z,6.47
2019-03-10T03:18:18.976Z,6.41
2019-03-10T03:20:49.321Z,6.45
2019-03-10T03:26:07.150Z,6.50
2019-03-10T03:28:37.493Z,6.46
2019-03-10T03:31:07.575Z,6.38
2019-03-10T03:33:37.908Z,6.46
2019-03-10T03:39:19.053Z,6.51
2019-03-10T03:41:49.080Z,6.51
2019-03-10T03:44:19.438Z,6.58
2019-03-10T03:46:49.767Z,6.62
2019-03-10T03:49:19.805Z,6.54
2019-03-10T03:51:49.847Z,6.48
2019-03-10T03:54:19.867Z,6.65
2019-03-10T03:56:49.899Z,6.59
2019-03-10T03:59:19.960Z,6.50
2019-03-10T04:01:50.267Z,6.60
2019-03-10T04:04:20.739Z,6.59
2019-03-10T04:06:50.756Z,6.39
2019-03-10T04:09:21.032Z,6.46
2019-03-10T04:11:51.075Z,6.61
2019-03-10T04:14:21.117Z,6.65
2019-03-10T04:19:30.488Z,6.34
2019-03-10T04:22:00.518Z,6.34
2019-03-10T04:24:30.652Z,6.27
2019-03-10T04:27:00.865Z,6.27
2019-03-10T04:29:30.911Z,6.59
2019-03-10T04:34:41.033Z,6.52
2019-03-10T04:37:11.059Z,6.50
2019-03-10T04:39:41.385Z,6.40
2019-03-10T04:42:11.429Z,6.39
2019-03-10T04:44:41.474Z,6.49
2019-03-10T04:47:11.520Z,6.49
2019-03-10T04:49:41.537Z,6.50
2019-03-10T04:52:11.567Z,6.41
2019-03-10T04:54:41.590Z,6.40
2019-03-10T04:57:11.617Z,6.39
2019-03-10T04:59:41.658Z,6.42
2019-03-10T05:02:11.715Z,6.57
2019-03-10T05:04:42.046Z,6.37
2019-03-10T05:07:12.360Z,6.37
2019-03-10T05:09:42.403Z,6.36
2019-03-10T05:12:12.466Z,6.51
2019-03-10T05:14:42.494Z,6.50
2019-03-10T05:17:12.539Z,6.42
2019-03-10T05:19:42.575Z,6.53
2019-03-10T05:22:12.610Z,6.53
2019-03-10T05:24:42.639Z,6.50
2019-03-10T05:27:12.696Z,6.52
2019-03-10T05:29:42.712Z,6.59
2019-03-10T05:32:13.145Z,6.59
2019-03-10T05:34:43.167Z,6.55
2019-03-10T05:37:13.208Z,6.59
2019-03-10T05:39:43.222Z,6.59
2019-03-10T05:42:13.270Z,6.54
2019-03-10T05:44:43.300Z,6.56
2019-03-10T05:47:13.643Z,6.70
2019-03-10T05:49:43.956Z,6.70
2019-03-10T05:52:13.989Z,6.60
2019-03-10T05:54:44.009Z,6.50
2019-03-10T05:57:14.060Z,6.53
2019-03-10T05:59:44.084Z,6.53
2019-03-10T06:02:14.113Z,6.39
2019-03-10T06:04:44.467Z,6.43
2019-03-10T06:07:14.519Z,6.24
2019-03-10T06:09:44.913Z,6.40
2019-03-10T06:12:14.980Z,6.44
2019-03-10T06:14:45.023Z,6.23
2019-03-10T06:17:15.100Z,6.37
2019-03-10T06:19:45.116Z,6.37
2019-03-10T06:22:15.122Z,6.29
2019-03-10T06:24:45.562Z,6.15
2019-03-10T06:27:15.835Z,6.25
2019-03-10T06:29:46.175Z,6.14
2019-03-10T06:32:16.209Z,6.11
2019-03-10T06:34:46.254Z,6.04
2019-03-10T06:37:16.271Z,6.06
2019-03-10T06:39:46.361Z,6.06
2019-03-10T06:42:16.728Z,5.97
2019-03-10T06:44:46.764Z,5.97
2019-03-10T06:47:16.807Z,5.90
2019-03-10T06:49:46.841Z,6.07
2019-03-10T06:52:16.864Z,6.07
2019-03-10T06:54:46.923Z,5.96
2019-03-10T06:57:16.950Z,5.87
2019-03-10T06:59:46.987Z,6.04
2019-03-10T07:02:17.037Z,6.10
2019-03-10T07:04:47.387Z,5.90
2019-03-10T07:07:17.407Z,5.90
2019-03-10T07:09:47.463Z,5.87
2019-03-10T07:12:17.494Z,5.88
2019-03-10T07:14:47.542Z,5.88
2019-03-10T07:17:17.571Z,5.96
2019-03-10T07:19:47.856Z,5.92
2019-03-10T07:22:17.894Z,5.76
2019-03-10T07:24:47.939Z,5.93
2019-03-10T07:27:17.958Z,5.96
2019-03-10T07:29:48.255Z,5.94
2019-03-10T07:32:18.287Z,5.89
2019-03-10T07:34:48.325Z,5.82
2019-03-10T07:37:18.342Z,5.89
2019-03-10T07:39:48.731Z,5.88
2019-03-10T07:42:18.751Z,5.88
2019-03-10T07:44:49.055Z,5.85
2019-03-10T07:47:19.072Z,5.85
2019-03-10T07:49:49.120Z,5.81
2019-03-10T07:52:20.582Z,5.92
2019-03-10T07:54:49.182Z,5.92
2019-03-10T07:57:19.545Z,5.83
2019-03-10T07:59:49.885Z,5.88
2019-03-10T08:02:19.912Z,5.93
2019-03-10T08:04:49.946Z,5.90
2019-03-10T08:07:19.957Z,5.91
2019-03-10T08:09:50.006Z,5.91
2019-03-10T08:12:20.029Z,5.97
2019-03-10T08:14:50.055Z,6.03
2019-03-10T08:17:20.393Z,6.03
2019-03-10T08:19:50.543Z,5.98
2019-03-10T08:22:20.819Z,5.94
2019-03-10T08:24:50.885Z,6.00
2019-03-10T08:27:20.907Z,5.92
2019-03-10T08:29:50.968Z,5.94
2019-03-10T08:32:21.109Z,5.92
2019-03-10T08:34:51.409Z,5.95
2019-03-10T08:37:21.422Z,6.02
2019-03-10T08:39:51.754Z,5.95
2019-03-10T08:42:21.774Z,6.09
2019-03-10T08:44:52.101Z,6.02
2019-03-10T08:47:22.232Z,6.12
2019-03-10T08:49:52.254Z,6.07
2019-03-10T08:52:22.294Z,6.14
2019-03-10T08:54:52.675Z,6.29
2019-03-10T08:57:22.707Z,6.16
2019-03-10T08:59:52.937Z,6.21
2019-03-10T09:02:23.117Z,6.25
2019-03-10T09:04:53.368Z,6.41
2019-03-10T09:07:23.400Z,6.40
2019-03-10T09:09:53.781Z,6.33
2019-03-10T09:12:23.806Z,6.35
2019-03-10T09:14:54.233Z,6.32
2019-03-10T09:17:24.570Z,6.37
2019-03-10T09:22:34.371Z,6.65
2019-03-10T09:25:04.431Z,6.61
2019-03-10T09:27:34.747Z,6.78
2019-03-10T09:30:04.788Z,6.66
2019-03-10T09:32:36.806Z,6.68
2019-03-10T09:35:04.890Z,6.61
2019-03-10T09:37:34.917Z,6.50
2019-03-10T09:40:05.229Z,6.51
2019-03-10T09:42:35.259Z,6.57
2019-03-10T09:45:05.552Z,6.51
2019-03-10T09:47:35.587Z,6.54
2019-03-10T09:50:05.736Z,6.58
2019-03-10T09:52:35.685Z,6.63
2019-03-10T09:55:06.043Z,6.59
2019-03-10T09:57:36.372Z,6.54
2019-03-10T10:00:06.430Z,6.63
2019-03-10T10:02:36.469Z,6.59
2019-03-10T10:05:06.518Z,6.54
2019-03-10T10:07:36.841Z,6.62
2019-03-10T10:10:06.907Z,6.76
2019-03-10T10:12:37.277Z,6.82
2019-03-10T10:15:07.337Z,6.87
2019-03-10T10:17:37.369Z,6.81
2019-03-10T10:20:07.408Z,6.94
2019-03-10T10:22:37.432Z,7.06
2019-03-10T10:25:07.464Z,7.01
2019-03-10T10:27:37.772Z,7.03
2019-03-10T10:30:11.184Z,7.16
2019-03-10T10:32:41.489Z,7.32
2019-03-10T10:35:11.543Z,7.60
2019-03-10T10:37:41.949Z,7.75
2019-03-10T10:40:12.269Z,7.89
2019-03-10T10:42:42.295Z,8.03
2019-03-10T10:45:12.374Z,8.21
2019-03-10T10:47:42.722Z,8.42
2019-03-10T10:50:13.924Z,8.54
2019-03-10T10:52:43.075Z,8.65
2019-03-10T10:55:13.393Z,8.77
2019-03-10T10:57:43.602Z,8.99
2019-03-10T11:00:13.617Z,9.02
2019-03-10T11:02:43.934Z,9.10
2019-03-10T11:05:13.978Z,9.24
2019-03-10T11:07:43.991Z,9.34
2019-03-10T11:10:14.281Z,9.43
2019-03-10T11:12:44.321Z,9.58
2019-03-10T11:15:14.622Z,9.65
2019-03-10T11:17:44.977Z,9.64
2019-03-10T11:20:15.047Z,9.58
2019-03-10T11:22:45.089Z,9.52
2019-03-10T11:25:15.141Z,9.59
2019-03-10T11:27:45.200Z,9.62
2019-03-10T11:30:15.533Z,9.60
2019-03-10T11:32:45.877Z,9.74
2019-03-10T11:35:16.176Z,9.76
2019-03-10T11:37:46.497Z,9.76
2019-03-10T11:40:16.828Z,9.53
2019-03-10T11:42:46.861Z,9.47
2019-03-10T11:45:16.891Z,9.51
2019-03-10T11:47:47.303Z,9.52
2019-03-10T11:50:17.626Z,9.36
2019-03-10T11:52:47.652Z,9.13
2019-03-10T11:55:17.694Z,9.21
2019-03-10T11:57:47.740Z,9.42
2019-03-10T12:00:17.774Z,9.54
2019-03-10T12:02:47.801Z,9.85
2019-03-10T12:05:18.226Z,10.26
2019-03-10T12:07:48.259Z,10.54
2019-03-10T12:10:18.569Z,10.63
2019-03-10T12:12:48.978Z,10.85
2019-03-10T12:15:19.283Z,11.00
2019-03-10T12:17:49.615Z,11.22
2019-03-10T12:20:19.649Z,11.32
2019-03-10T12:22:49.980Z,11.51
2019-03-10T12:25:20.247Z,11.63
2019-03-10T12:27:50.599Z,11.73
2019-03-10T12:30:20.645Z,11.72
2019-03-10T12:32:50.935Z,11.68
2019-03-10T12:35:20.993Z,11.84
2019-03-10T12:37:51.381Z,12.17
2019-03-10T12:40:21.695Z,12.24
2019-03-10T12:42:51.770Z,12.27
2019-03-10T12:45:21.759Z,12.28
2019-03-10T12:47:52.153Z,12.37
2019-03-10T12:50:22.183Z,12.29
2019-03-10T12:52:52.259Z,12.36
2019-03-10T12:55:22.635Z,12.69
2019-03-10T12:57:52.681Z,12.62
2019-03-10T13:00:23.058Z,12.42
2019-03-10T13:02:53.400Z,12.32
2019-03-10T13:05:23.699Z,12.30
2019-03-10T13:07:53.741Z,12.25
2019-03-10T13:10:23.760Z,12.29
2019-03-10T13:12:54.143Z,11.92
2019-03-10T13:15:24.176Z,11.79
2019-03-10T13:17:54.201Z,11.70
2019-03-10T13:20:28.089Z,11.64
2019-03-10T13:22:54.618Z,11.42
2019-03-10T13:25:24.632Z,11.40
2019-03-10T13:27:55.161Z,11.28
2019-03-10T13:30:25.198Z,11.24
2019-03-10T13:32:55.228Z,11.04
2019-03-10T13:35:25.273Z,11.00
2019-03-10T13:37:55.335Z,10.98
2019-03-10T13:40:25.364Z,10.65
2019-03-10T13:42:55.390Z,10.16
2019-03-10T13:45:25.678Z,10.08
2019-03-10T13:47:55.709Z,9.90
2019-03-10T13:50:26.143Z,9.93
2019-03-10T13:52:56.195Z,9.91
2019-03-10T13:55:26.229Z,10.00
2019-03-10T13:57:56.280Z,10.12
2019-03-10T14:00:26.310Z,10.13
2019-03-10T14:02:56.606Z,10.10
2019-03-10T14:05:26.880Z,10.08
2019-03-10T14:07:56.936Z,10.28
2019-03-10T14:10:27.274Z,10.33
2019-03-10T14:12:57.315Z,10.30
2019-03-10T14:15:27.378Z,10.41
2019-03-10T14:17:57.666Z,10.40
2019-03-10T14:20:27.690Z,10.55
2019-03-10T14:22:57.724Z,10.73
2019-03-10T14:25:27.846Z,10.75
2019-03-10T14:27:57.786Z,10.82
2019-03-10T14:30:27.815Z,10.80
2019-03-10T14:32:57.857Z,10.87
2019-03-10T14:35:27.883Z,10.91
2019-03-10T14:37:57.925Z,11.01
2019-03-10T14:40:28.268Z,11.07
2019-03-10T14:42:58.357Z,11.04
2019-03-10T14:45:28.707Z,11.15
2019-03-10T14:47:59.055Z,11.39
2019-03-10T14:50:29.362Z,11.53
2019-03-10T14:52:59.706Z,11.52
2019-03-10T14:55:29.732Z,11.51
2019-03-10T14:57:59.783Z,11.45
2019-03-10T15:00:30.135Z,11.43
2019-03-10T15:03:00.469Z,11.31
2019-03-10T15:05:30.487Z,11.22
2019-03-10T15:08:00.916Z,11.12
2019-03-10T15:10:30.945Z,11.16
2019-03-10T15:13:00.972Z,11.22
2019-03-10T15:15:31.018Z,11.19
2019-03-10T15:18:02.985Z,11.22
2019-03-10T15:20:31.384Z,11.16
2019-03-10T15:23:01.413Z,11.15
2019-03-10T15:25:31.440Z,11.27
2019-03-10T15:28:01.738Z,11.20
2019-03-10T15:30:31.781Z,11.09
2019-03-10T15:33:01.916Z,11.11
2019-03-10T15:35:31.929Z,11.14
2019-03-10T15:38:01.986Z,11.19
2019-03-10T15:40:32.324Z,11.06
2019-03-10T15:43:02.387Z,11.00
2019-03-10T15:45:32.483Z,10.94
2019-03-10T15:48:02.560Z,10.95
2019-03-10T15:50:35.518Z,11.14
2019-03-10T15:53:05.555Z,11.17
2019-03-10T15:55:35.843Z,11.10
2019-03-10T15:58:05.856Z,11.11
2019-03-10T16:00:36.231Z,11.13
2019-03-10T16:03:06.285Z,11.20
2019-03-10T16:05:36.367Z,11.21
2019-03-10T16:08:06.355Z,11.24
2019-03-10T16:10:36.402Z,11.02
2019-03-10T16:13:06.726Z,11.12
2019-03-10T16:15:36.764Z,11.13
2019-03-10T16:18:06.793Z,11.01
2019-03-10T16:20:37.178Z,11.01
2019-03-10T16:25:46.830Z,11.03
2019-03-10T16:28:17.196Z,11.10
2019-03-10T16:30:47.474Z,11.19
2019-03-10T16:33:17.504Z,10.92
2019-03-10T16:35:47.547Z,10.81
2019-03-10T16:38:17.570Z,10.77
2019-03-10T16:40:47.603Z,10.83
2019-03-10T16:43:17.839Z,10.68
2019-03-10T16:45:47.848Z,10.84
2019-03-10T16:50:57.250Z,10.71
2019-03-10T16:53:27.275Z,10.55
2019-03-10T16:56:02.762Z,10.39
2019-03-10T16:58:27.458Z,10.36
2019-03-10T17:00:57.501Z,10.29
2019-03-10T17:03:27.819Z,10.23
2019-03-10T17:05:57.875Z,10.11
2019-03-10T17:08:28.280Z,10.02
2019-03-10T17:10:58.336Z,10.02
2019-03-10T17:13:28.590Z,10.04
2019-03-10T17:15:59.024Z,9.83
2019-03-10T17:18:29.047Z,9.79
2019-03-10T17:20:59.474Z,9.89
2019-03-10T17:23:29.487Z,9.79
2019-03-10T17:25:59.787Z,9.71
2019-03-10T17:28:29.839Z,9.72
2019-03-10T17:31:00.248Z,9.82
2019-03-10T17:33:30.276Z,9.81
2019-03-10T17:36:00.316Z,9.71
2019-03-10T17:38:30.601Z,9.67
2019-03-10T17:41:00.648Z,9.51
2019-03-10T17:43:31.039Z,9.55
2019-03-10T17:46:01.074Z,9.52
2019-03-10T17:48:31.391Z,9.54
2019-03-10T17:51:01.414Z,9.55
2019-03-10T17:53:31.824Z,9.45
2019-03-10T17:56:01.853Z,9.43
2019-03-10T17:58:33.961Z,9.41
2019-03-10T18:01:02.196Z,9.37
2019-03-10T18:03:32.230Z,9.30
2019-03-10T18:06:02.279Z,9.29
2019-03-10T18:08:32.299Z,9.19
2019-03-10T18:11:02.331Z,9.34
2019-03-10T18:13:32.347Z,9.35
2019-03-10T18:18:42.121Z,9.20
2019-03-10T18:21:12.416Z,9.14
2019-03-10T18:23:42.841Z,9.00
2019-03-10T18:26:12.877Z,8.94
2019-03-10T18:28:42.912Z,8.78
2019-03-10T18:31:12.961Z,8.85
2019-03-10T18:33:43.317Z,8.82
2019-03-10T18:36:13.398Z,8.77
2019-03-10T18:38:43.376Z,8.80
2019-03-10T18:41:13.771Z,8.77
2019-03-10T18:43:43.799Z,8.88
2019-03-10T18:46:13.836Z,8.82
2019-03-10T18:48:44.237Z,8.81
2019-03-10T18:51:14.552Z,8.75
2019-03-10T18:53:44.875Z,8.69
2019-03-10T18:56:14.930Z,8.63
2019-03-10T18:58:44.953Z,8.71
2019-03-10T19:01:14.998Z,8.63
2019-03-10T19:03:45.389Z,8.69
2019-03-10T19:06:15.435Z,8.62
2019-03-10T19:08:45.458Z,8.54
2019-03-10T19:11:15.505Z,8.52
2019-03-10T19:13:45.550Z,8.41
2019-03-10T19:16:15.581Z,8.43
2019-03-10T19:18:45.614Z,8.31
2019-03-10T19:21:15.661Z,8.30
2019-03-10T19:23:45.974Z,8.33
2019-03-10T19:26:16.016Z,8.23
2019-03-10T19:28:46.324Z,8.10
2019-03-10T19:31:16.376Z,8.00
2019-03-10T19:33:46.394Z,7.82
2019-03-10T19:36:16.432Z,7.47
2019-03-10T19:38:46.435Z,7.24
2019-03-10T19:41:16.472Z,6.94
2019-03-10T19:43:46.504Z,6.87
2019-03-10T19:46:16.569Z,6.84
2019-03-10T19:48:46.610Z,6.65
2019-03-10T19:51:16.689Z,6.59
2019-03-10T19:53:46.717Z,6.32
2019-03-10T19:56:16.748Z,6.32
2019-03-10T19:58:46.773Z,6.29
2019-03-10T20:01:16.818Z,6.13
2019-03-10T20:03:47.116Z,6.01
2019-03-10T20:06:17.473Z,5.76
2019-03-10T20:08:47.519Z,5.58
2019-03-10T20:11:17.548Z,5.58
2019-03-10T20:13:47.941Z,5.42
2019-03-10T20:16:18.292Z,5.47
2019-03-10T20:18:48.675Z,5.21
2019-03-10T20:21:18.714Z,5.21
2019-03-10T20:23:49.005Z,5.19
2019-03-10T20:26:19.045Z,5.16
2019-03-10T20:28:49.354Z,4.99
2019-03-10T20:31:19.680Z,4.84
2019-03-10T20:33:52.318Z,4.89
2019-03-10T20:36:19.772Z,4.79
2019-03-10T20:38:49.793Z,4.75
2019-03-10T20:41:20.142Z,4.60
2019-03-10T20:43:50.176Z,4.62
2019-03-10T20:46:20.482Z,4.58
2019-03-10T20:48:50.498Z,4.64
2019-03-10T20:51:20.569Z,4.51
2019-03-10T20:53:50.599Z,4.50
2019-03-10T20:56:20.631Z,4.56
2019-03-10T20:58:50.707Z,4.45
2019-03-10T21:01:21.425Z,4.37
2019-03-10T21:03:51.315Z,4.40
2019-03-10T21:06:21.365Z,4.48
2019-03-10T21:08:51.766Z,4.48
2019-03-10T21:11:21.873Z,4.65
2019-03-10T21:13:51.899Z,4.35
2019-03-10T21:16:22.323Z,4.22
2019-03-10T21:18:52.325Z,4.34
2019-03-10T21:21:22.634Z,4.24
2019-03-10T21:23:55.240Z,4.23
2019-03-10T21:26:23.015Z,4.17
2019-03-10T21:28:53.049Z,4.21
2019-03-10T21:31:23.421Z,4.09
2019-03-10T21:33:53.453Z,4.00
2019-03-10T21:36:23.776Z,3.91
2019-03-10T21:38:53.866Z,3.91
2019-03-10T21:41:24.218Z,3.94
2019-03-10T21:43:54.662Z,3.95
2019-03-10T21:46:24.572Z,3.98
2019-03-10T21:48:54.594Z,3.99
2019-03-10T21:51:24.994Z,3.96
2019-03-10T21:53:55.061Z,3.94
2019-03-10T21:56:25.092Z,3.88
2019-03-10T21:58:55.431Z,3.84
2019-03-10T22:01:25.453Z,3.92
2019-03-10T22:03:55.764Z,3.83
2019-03-10T22:06:25.787Z,3.69
2019-03-10T22:08:55.818Z,3.58
2019-03-10T22:11:26.124Z,3.41
2019-03-10T22:13:56.455Z,3.50
2019-03-10T22:16:26.517Z,3.43
2019-03-10T22:18:56.538Z,3.32
2019-03-10T22:21:26.583Z,3.47
2019-03-10T22:23:59.489Z,3.33
2019-03-10T22:26:26.607Z,3.30
2019-03-10T22:28:56.773Z,3.26
2019-03-10T22:31:26.695Z,3.32
2019-03-10T22:33:56.722Z,3.29
2019-03-10T22:36:26.757Z,3.40
2019-03-10T22:38:57.156Z,3.26
2019-03-10T22:41:27.528Z,3.29
2019-03-10T22:43:57.565Z,3.22
2019-03-10T22:46:27.581Z,3.19
2019-03-10T22:48:57.616Z,3.15
2019-03-10T22:51:27.634Z,3.20
2019-03-10T22:53:57.667Z,3.36
2019-03-10T22:56:27.679Z,3.35
2019-03-10T22:58:58.048Z,3.38
2019-03-10T23:01:28.365Z,3.44
2019-03-10T23:03:58.700Z,3.44
2019-03-10T23:06:28.727Z,3.43
2019-03-10T23:08:59.131Z,3.43
2019-03-10T23:11:29.159Z,3.38
2019-03-10T23:13:59.184Z,3.49
2019-03-10T23:16:29.481Z,3.54
2019-03-10T23:18:59.512Z,3.38
2019-03-10T23:21:29.587Z,3.44
2019-03-10T23:23:59.621Z,3.47
2019-03-10T23:26:29.966Z,3.43
2019-03-10T23:29:00.003Z,3.51
2019-03-10T23:31:30.214Z,3.48
2019-03-10T23:34:00.248Z,3.51
2019-03-10T23:36:30.278Z,3.50
2019-03-10T23:39:00.332Z,3.55
2019-03-10T23:41:30.365Z,3.47
2019-03-10T23:44:00.413Z,3.59
2019-03-10T23:46:30.804Z,3.51
2019-03-10T23:49:00.841Z,3.52
2019-03-10T23:51:30.892Z,3.49
2019-03-10T23:54:00.900Z,3.60
2019-03-10T23:56:31.266Z,3.54
2019-03-10T23:59:01.316Z,3.52
